sensor_id;sensor_type;location;lat;lon;timestamp;P1;durP1;ratioP1;P2;durP2;ratioP2
62941;SDS011;49042;47.318;19.874;2023-09-08T00:02:53;12.25;;;5.87;;
62941;SDS011;49042;47.318;19.874;2023-09-08T00:05:55;8.73;;;5.22;;
62941;SDS011;49042;47.318;19.874;2023-09-08T00:08:57;9.10;;;6.05;;
62941;SDS011;49042;47.318;19.874;2023-09-08T00:11:58;11.48;;;5.57;;
62941;SDS011;49042;47.318;19.874;2023-09-08T00:15:00;9.40;;;5.30;;
62941;SDS011;49042;47.318;19.874;2023-09-08T00:18:02;7.47;;;5.22;;
62941;SDS011;49042;47.318;19.874;2023-09-08T00:21:04;11.20;;;5.78;;
62941;SDS011;49042;47.318;19.874;2023-09-08T00:24:06;10.35;;;6.25;;
62941;SDS011;49042;47.318;19.874;2023-09-08T00:27:08;12.43;;;5.30;;
62941;SDS011;49042;47.318;19.874;2023-09-08T00:30:11;10.88;;;5.35;;
62941;SDS011;49042;47.318;19.874;2023-09-08T00:33:13;8.55;;;5.72;;
62941;SDS011;49042;47.318;19.874;2023-09-08T00:36:15;8.82;;;5.62;;
62941;SDS011;49042;47.318;19.874;2023-09-08T00:39:17;8.30;;;5.90;;
62941;SDS011;49042;47.318;19.874;2023-09-08T00:42:18;9.48;;;6.43;;
62941;SDS011;49042;47.318;19.874;2023-09-08T00:45:20;11.70;;;6.22;;
62941;SDS011;49042;47.318;19.874;2023-09-08T00:48:22;11.15;;;5.82;;
62941;SDS011;49042;47.318;19.874;2023-09-08T00:51:24;13.52;;;6.22;;
62941;SDS011;49042;47.318;19.874;2023-09-08T00:54:27;8.82;;;5.50;;
62941;SDS011;49042;47.318;19.874;2023-09-08T00:57:28;14.50;;;5.97;;
62941;SDS011;49042;47.318;19.874;2023-09-08T01:00:30;12.43;;;5.90;;
62941;SDS011;49042;47.318;19.874;2023-09-08T01:03:34;14.07;;;5.87;;
62941;SDS011;49042;47.318;19.874;2023-09-08T01:06:35;8.88;;;5.95;;
62941;SDS011;49042;47.318;19.874;2023-09-08T01:09:38;7.82;;;6.03;;
62941;SDS011;49042;47.318;19.874;2023-09-08T01:12:41;10.13;;;5.50;;
62941;SDS011;49042;47.318;19.874;2023-09-08T01:15:42;13.10;;;5.80;;
62941;SDS011;49042;47.318;19.874;2023-09-08T01:18:44;10.68;;;6.53;;
62941;SDS011;49042;47.318;19.874;2023-09-08T01:25:23;9.73;;;6.43;;
62941;SDS011;49042;47.318;19.874;2023-09-08T01:28:26;9.85;;;5.97;;
62941;SDS011;49042;47.318;19.874;2023-09-08T01:31:29;9.40;;;5.85;;
62941;SDS011;49042;47.318;19.874;2023-09-08T01:34:31;13.95;;;6.10;;
62941;SDS011;49042;47.318;19.874;2023-09-08T01:37:33;9.88;;;6.35;;
62941;SDS011;49042;47.318;19.874;2023-09-08T01:40:34;10.95;;;6.47;;
62941;SDS011;49042;47.318;19.874;2023-09-08T01:43:36;13.20;;;6.03;;
62941;SDS011;49042;47.318;19.874;2023-09-08T01:46:38;10.05;;;6.10;;
62941;SDS011;49042;47.318;19.874;2023-09-08T01:49:42;9.57;;;6.30;;
62941;SDS011;49042;47.318;19.874;2023-09-08T01:52:44;10.70;;;6.47;;
62941;SDS011;49042;47.318;19.874;2023-09-08T01:55:45;8.07;;;6.03;;
62941;SDS011;49042;47.318;19.874;2023-09-08T01:58:47;9.48;;;6.10;;
62941;SDS011;49042;47.318;19.874;2023-09-08T02:01:49;11.63;;;6.57;;
62941;SDS011;49042;47.318;19.874;2023-09-08T02:04:50;13.05;;;6.45;;
62941;SDS011;49042;47.318;19.874;2023-09-08T02:07:52;12.23;;;6.55;;
62941;SDS011;49042;47.318;19.874;2023-09-08T02:10:57;8.80;;;6.50;;
62941;SDS011;49042;47.318;19.874;2023-09-08T02:13:58;10.38;;;6.80;;
62941;SDS011;49042;47.318;19.874;2023-09-08T02:17:00;13.82;;;6.55;;
62941;SDS011;49042;47.318;19.874;2023-09-08T02:20:02;18.95;;;6.85;;
62941;SDS011;49042;47.318;19.874;2023-09-08T02:23:05;10.60;;;6.80;;
62941;SDS011;49042;47.318;19.874;2023-09-08T02:26:08;17.67;;;5.87;;
62941;SDS011;49042;47.318;19.874;2023-09-08T02:29:09;11.18;;;7.12;;
62941;SDS011;49042;47.318;19.874;2023-09-08T02:32:12;9.48;;;6.20;;
62941;SDS011;49042;47.318;19.874;2023-09-08T02:35:15;10.75;;;6.22;;
62941;SDS011;49042;47.318;19.874;2023-09-08T02:38:17;9.75;;;6.70;;
62941;SDS011;49042;47.318;19.874;2023-09-08T02:41:19;11.25;;;6.57;;
62941;SDS011;49042;47.318;19.874;2023-09-08T02:44:21;10.48;;;6.75;;
62941;SDS011;49042;47.318;19.874;2023-09-08T02:47:26;12.07;;;6.95;;
62941;SDS011;49042;47.318;19.874;2023-09-08T02:50:28;16.92;;;6.65;;
62941;SDS011;49042;47.318;19.874;2023-09-08T02:53:30;9.65;;;6.60;;
62941;SDS011;49042;47.318;19.874;2023-09-08T02:56:50;11.90;;;7.10;;
62941;SDS011;49042;47.318;19.874;2023-09-08T02:59:52;15.68;;;6.80;;
62941;SDS011;49042;47.318;19.874;2023-09-08T03:02:54;10.35;;;7.05;;
62941;SDS011;49042;47.318;19.874;2023-09-08T03:05:56;11.75;;;7.12;;
62941;SDS011;49042;47.318;19.874;2023-09-08T03:09:01;11.48;;;6.95;;
62941;SDS011;49042;47.318;19.874;2023-09-08T03:12:03;9.85;;;6.85;;
62941;SDS011;49042;47.318;19.874;2023-09-08T03:15:05;10.20;;;7.35;;
62941;SDS011;49042;47.318;19.874;2023-09-08T03:18:08;9.25;;;6.68;;
62941;SDS011;49042;47.318;19.874;2023-09-08T03:21:09;13.65;;;6.68;;
62941;SDS011;49042;47.318;19.874;2023-09-08T03:24:14;10.32;;;6.90;;
62941;SDS011;49042;47.318;19.874;2023-09-08T03:27:16;12.10;;;7.22;;
62941;SDS011;49042;47.318;19.874;2023-09-08T03:30:18;9.60;;;6.25;;
62941;SDS011;49042;47.318;19.874;2023-09-08T03:33:19;9.45;;;6.75;;
62941;SDS011;49042;47.318;19.874;2023-09-08T03:36:22;13.43;;;7.80;;
62941;SDS011;49042;47.318;19.874;2023-09-08T03:39:23;10.25;;;6.95;;
62941;SDS011;49042;47.318;19.874;2023-09-08T03:42:25;8.60;;;6.65;;
62941;SDS011;49042;47.318;19.874;2023-09-08T03:45:27;12.35;;;7.05;;
62941;SDS011;49042;47.318;19.874;2023-09-08T03:48:28;13.43;;;7.35;;
62941;SDS011;49042;47.318;19.874;2023-09-08T03:51:30;16.02;;;7.65;;
62941;SDS011;49042;47.318;19.874;2023-09-08T03:54:32;10.70;;;7.15;;
62941;SDS011;49042;47.318;19.874;2023-09-08T03:57:34;10.65;;;7.35;;
62941;SDS011;49042;47.318;19.874;2023-09-08T04:00:35;11.73;;;7.55;;
62941;SDS011;49042;47.318;19.874;2023-09-08T04:03:38;10.25;;;7.35;;
62941;SDS011;49042;47.318;19.874;2023-09-08T04:06:40;11.55;;;7.90;;
62941;SDS011;49042;47.318;19.874;2023-09-08T04:09:42;13.27;;;7.10;;
62941;SDS011;49042;47.318;19.874;2023-09-08T04:12:44;15.52;;;7.03;;
62941;SDS011;49042;47.318;19.874;2023-09-08T04:15:46;10.30;;;7.37;;
62941;SDS011;49042;47.318;19.874;2023-09-08T04:18:48;13.40;;;7.62;;
62941;SDS011;49042;47.318;19.874;2023-09-08T04:21:49;11.48;;;6.65;;
62941;SDS011;49042;47.318;19.874;2023-09-08T04:24:51;9.95;;;7.20;;
62941;SDS011;49042;47.318;19.874;2023-09-08T04:27:54;16.83;;;7.87;;
62941;SDS011;49042;47.318;19.874;2023-09-08T04:30:56;12.05;;;7.40;;
62941;SDS011;49042;47.318;19.874;2023-09-08T04:33:58;18.77;;;7.20;;
62941;SDS011;49042;47.318;19.874;2023-09-08T04:36:59;16.87;;;7.20;;
62941;SDS011;49042;47.318;19.874;2023-09-08T04:40:01;18.62;;;6.93;;
62941;SDS011;49042;47.318;19.874;2023-09-08T04:43:03;12.10;;;7.10;;
62941;SDS011;49042;47.318;19.874;2023-09-08T04:46:05;25.30;;;7.72;;
62941;SDS011;49042;47.318;19.874;2023-09-08T04:49:07;16.12;;;7.20;;
62941;SDS011;49042;47.318;19.874;2023-09-08T04:52:08;14.35;;;6.95;;
62941;SDS011;49042;47.318;19.874;2023-09-08T04:55:12;10.23;;;7.00;;
62941;SDS011;49042;47.318;19.874;2023-09-08T04:58:13;13.57;;;7.15;;
62941;SDS011;49042;47.318;19.874;2023-09-08T05:01:15;9.35;;;6.80;;
62941;SDS011;49042;47.318;19.874;2023-09-08T05:04:17;12.77;;;6.57;;
62941;SDS011;49042;47.318;19.874;2023-09-08T05:07:19;17.25;;;8.05;;
62941;SDS011;49042;47.318;19.874;2023-09-08T05:10:24;22.13;;;8.10;;
62941;SDS011;49042;47.318;19.874;2023-09-08T05:13:26;15.10;;;8.57;;
62941;SDS011;49042;47.318;19.874;2023-09-08T05:16:32;16.00;;;7.87;;
62941;SDS011;49042;47.318;19.874;2023-09-08T05:19:51;16.37;;;8.05;;
62941;SDS011;49042;47.318;19.874;2023-09-08T05:22:53;10.70;;;7.40;;
62941;SDS011;49042;47.318;19.874;2023-09-08T05:25:54;14.02;;;7.43;;
62941;SDS011;49042;47.318;19.874;2023-09-08T05:28:56;15.43;;;7.03;;
62941;SDS011;49042;47.318;19.874;2023-09-08T05:31:58;13.68;;;8.07;;
62941;SDS011;49042;47.318;19.874;2023-09-08T05:35:00;12.70;;;7.37;;
62941;SDS011;49042;47.318;19.874;2023-09-08T05:38:01;14.30;;;7.20;;
62941;SDS011;49042;47.318;19.874;2023-09-08T05:41:04;16.48;;;7.20;;
62941;SDS011;49042;47.318;19.874;2023-09-08T05:44:05;12.40;;;6.22;;
62941;SDS011;49042;47.318;19.874;2023-09-08T05:47:07;16.52;;;8.60;;
62941;SDS011;49042;47.318;19.874;2023-09-08T05:50:09;11.50;;;7.37;;
62941;SDS011;49042;47.318;19.874;2023-09-08T05:53:11;16.12;;;7.12;;
62941;SDS011;49042;47.318;19.874;2023-09-08T05:56:13;12.27;;;7.35;;
62941;SDS011;49042;47.318;19.874;2023-09-08T05:59:14;10.75;;;7.35;;
62941;SDS011;49042;47.318;19.874;2023-09-08T06:02:16;12.60;;;6.57;;
62941;SDS011;49042;47.318;19.874;2023-09-08T06:05:18;12.07;;;6.37;;
62941;SDS011;49042;47.318;19.874;2023-09-08T06:08:20;13.60;;;6.87;;
62941;SDS011;49042;47.318;19.874;2023-09-08T06:11:21;11.45;;;6.60;;
62941;SDS011;49042;47.318;19.874;2023-09-08T06:14:23;20.00;;;6.75;;
62941;SDS011;49042;47.318;19.874;2023-09-08T06:17:25;16.12;;;6.47;;
62941;SDS011;49042;47.318;19.874;2023-09-08T06:20:26;11.90;;;6.10;;
62941;SDS011;49042;47.318;19.874;2023-09-08T06:23:28;26.58;;;7.37;;
62941;SDS011;49042;47.318;19.874;2023-09-08T06:26:30;22.23;;;6.60;;
62941;SDS011;49042;47.318;19.874;2023-09-08T06:29:32;10.68;;;6.25;;
62941;SDS011;49042;47.318;19.874;2023-09-08T06:32:33;10.40;;;5.82;;
62941;SDS011;49042;47.318;19.874;2023-09-08T06:35:35;9.50;;;6.05;;
62941;SDS011;49042;47.318;19.874;2023-09-08T06:38:37;17.45;;;6.00;;
62941;SDS011;49042;47.318;19.874;2023-09-08T06:41:39;8.45;;;5.22;;
62941;SDS011;49042;47.318;19.874;2023-09-08T06:44:40;11.48;;;5.93;;
62941;SDS011;49042;47.318;19.874;2023-09-08T06:47:42;19.10;;;5.55;;
62941;SDS011;49042;47.318;19.874;2023-09-08T06:50:45;8.50;;;5.35;;
62941;SDS011;49042;47.318;19.874;2023-09-08T06:53:56;10.52;;;5.30;;
62941;SDS011;49042;47.318;19.874;2023-09-08T06:56:58;12.07;;;5.25;;
62941;SDS011;49042;47.318;19.874;2023-09-08T07:00:00;7.70;;;5.28;;
62941;SDS011;49042;47.318;19.874;2023-09-08T07:03:02;9.70;;;4.70;;
62941;SDS011;49042;47.318;19.874;2023-09-08T07:06:04;10.98;;;5.30;;
62941;SDS011;49042;47.318;19.874;2023-09-08T07:09:06;6.05;;;4.70;;
62941;SDS011;49042;47.318;19.874;2023-09-08T07:12:07;6.47;;;4.72;;
62941;SDS011;49042;47.318;19.874;2023-09-08T07:15:09;12.43;;;5.43;;
62941;SDS011;49042;47.318;19.874;2023-09-08T07:18:12;9.50;;;4.78;;
62941;SDS011;49042;47.318;19.874;2023-09-08T07:21:13;11.45;;;4.70;;
62941;SDS011;49042;47.318;19.874;2023-09-08T07:24:15;16.77;;;5.43;;
62941;SDS011;49042;47.318;19.874;2023-09-08T07:27:17;11.68;;;5.43;;
62941;SDS011;49042;47.318;19.874;2023-09-08T07:30:20;25.55;;;5.82;;
62941;SDS011;49042;47.318;19.874;2023-09-08T07:33:22;9.45;;;5.87;;
62941;SDS011;49042;47.318;19.874;2023-09-08T07:36:24;6.25;;;3.83;;
62941;SDS011;49042;47.318;19.874;2023-09-08T07:39:26;9.88;;;4.57;;
62941;SDS011;49042;47.318;19.874;2023-09-08T07:42:27;8.30;;;4.40;;
62941;SDS011;49042;47.318;19.874;2023-09-08T07:45:29;11.65;;;4.32;;
62941;SDS011;49042;47.318;19.874;2023-09-08T07:48:31;13.98;;;4.45;;
62941;SDS011;49042;47.318;19.874;2023-09-08T07:51:33;7.57;;;4.43;;
62941;SDS011;49042;47.318;19.874;2023-09-08T07:54:35;5.87;;;4.12;;
62941;SDS011;49042;47.318;19.874;2023-09-08T07:57:37;7.28;;;4.15;;
62941;SDS011;49042;47.318;19.874;2023-09-08T08:00:38;7.97;;;4.10;;
62941;SDS011;49042;47.318;19.874;2023-09-08T08:03:40;5.05;;;4.10;;
62941;SDS011;49042;47.318;19.874;2023-09-08T08:06:42;16.20;;;4.57;;
62941;SDS011;49042;47.318;19.874;2023-09-08T08:18:36;8.25;;;4.55;;
62941;SDS011;49042;47.318;19.874;2023-09-08T08:21:38;5.35;;;3.90;;
62941;SDS011;49042;47.318;19.874;2023-09-08T08:24:43;6.87;;;4.07;;
62941;SDS011;49042;47.318;19.874;2023-09-08T08:27:45;5.68;;;4.10;;
62941;SDS011;49042;47.318;19.874;2023-09-08T08:30:47;9.70;;;4.05;;
62941;SDS011;49042;47.318;19.874;2023-09-08T08:33:49;6.35;;;4.22;;
62941;SDS011;49042;47.318;19.874;2023-09-08T08:36:51;6.10;;;4.20;;
62941;SDS011;49042;47.318;19.874;2023-09-08T08:39:53;7.25;;;4.20;;
62941;SDS011;49042;47.318;19.874;2023-09-08T08:42:55;15.07;;;4.07;;
62941;SDS011;49042;47.318;19.874;2023-09-08T08:46:01;12.57;;;4.22;;
62941;SDS011;49042;47.318;19.874;2023-09-08T08:49:04;7.47;;;3.90;;
62941;SDS011;49042;47.318;19.874;2023-09-08T08:52:07;5.10;;;4.15;;
62941;SDS011;49042;47.318;19.874;2023-09-08T08:55:10;7.90;;;4.18;;
62941;SDS011;49042;47.318;19.874;2023-09-08T08:58:13;17.95;;;4.25;;
62941;SDS011;49042;47.318;19.874;2023-09-08T09:01:16;6.68;;;3.80;;
62941;SDS011;49042;47.318;19.874;2023-09-08T09:04:20;6.20;;;4.35;;
62941;SDS011;49042;47.318;19.874;2023-09-08T09:07:22;8.00;;;3.78;;
62941;SDS011;49042;47.318;19.874;2023-09-08T09:10:25;9.15;;;3.42;;
62941;SDS011;49042;47.318;19.874;2023-09-08T09:13:27;9.57;;;3.97;;
62941;SDS011;49042;47.318;19.874;2023-09-08T09:16:28;5.78;;;3.70;;
62941;SDS011;49042;47.318;19.874;2023-09-08T09:19:30;6.07;;;3.45;;
62941;SDS011;49042;47.318;19.874;2023-09-08T09:22:36;5.70;;;3.75;;
62941;SDS011;49042;47.318;19.874;2023-09-08T09:25:38;5.28;;;3.50;;
62941;SDS011;49042;47.318;19.874;2023-09-08T09:28:49;6.87;;;3.55;;
62941;SDS011;49042;47.318;19.874;2023-09-08T09:31:54;6.78;;;3.80;;
62941;SDS011;49042;47.318;19.874;2023-09-08T09:34:57;6.20;;;4.18;;
62941;SDS011;49042;47.318;19.874;2023-09-08T09:38:02;5.28;;;3.85;;
62941;SDS011;49042;47.318;19.874;2023-09-08T09:41:04;7.25;;;3.70;;
62941;SDS011;49042;47.318;19.874;2023-09-08T09:44:07;5.12;;;3.92;;
62941;SDS011;49042;47.318;19.874;2023-09-08T09:47:09;7.03;;;3.72;;
62941;SDS011;49042;47.318;19.874;2023-09-08T09:50:12;11.55;;;4.28;;
62941;SDS011;49042;47.318;19.874;2023-09-08T09:53:15;4.87;;;3.62;;
62941;SDS011;49042;47.318;19.874;2023-09-08T09:56:18;10.43;;;4.12;;
62941;SDS011;49042;47.318;19.874;2023-09-08T09:59:21;7.28;;;3.70;;
62941;SDS011;49042;47.318;19.874;2023-09-08T10:02:24;9.15;;;3.72;;
62941;SDS011;49042;47.318;19.874;2023-09-08T10:05:27;7.55;;;3.20;;
62941;SDS011;49042;47.318;19.874;2023-09-08T10:08:29;4.07;;;3.35;;
62941;SDS011;49042;47.318;19.874;2023-09-08T10:11:44;6.07;;;3.50;;
62941;SDS011;49042;47.318;19.874;2023-09-08T10:14:50;6.12;;;3.50;;
62941;SDS011;49042;47.318;19.874;2023-09-08T10:17:55;9.73;;;3.20;;
62941;SDS011;49042;47.318;19.874;2023-09-08T10:20:59;12.32;;;3.67;;
62941;SDS011;49042;47.318;19.874;2023-09-08T10:24:13;5.70;;;3.45;;
62941;SDS011;49042;47.318;19.874;2023-09-08T10:27:17;7.22;;;4.00;;
62941;SDS011;49042;47.318;19.874;2023-09-08T10:30:21;9.07;;;4.13;;
62941;SDS011;49042;47.318;19.874;2023-09-08T10:33:24;14.10;;;3.70;;
62941;SDS011;49042;47.318;19.874;2023-09-08T10:36:27;8.10;;;3.62;;
62941;SDS011;49042;47.318;19.874;2023-09-08T10:39:30;6.72;;;3.40;;
62941;SDS011;49042;47.318;19.874;2023-09-08T10:42:39;6.22;;;3.45;;
62941;SDS011;49042;47.318;19.874;2023-09-08T10:45:41;17.12;;;3.67;;
62941;SDS011;49042;47.318;19.874;2023-09-08T10:48:43;7.62;;;3.42;;
62941;SDS011;49042;47.318;19.874;2023-09-08T10:51:47;11.38;;;4.10;;
62941;SDS011;49042;47.318;19.874;2023-09-08T10:54:53;6.28;;;4.10;;
62941;SDS011;49042;47.318;19.874;2023-09-08T10:57:55;7.70;;;3.72;;
62941;SDS011;49042;47.318;19.874;2023-09-08T11:00:59;8.32;;;3.80;;
62941;SDS011;49042;47.318;19.874;2023-09-08T11:04:03;9.07;;;3.70;;
62941;SDS011;49042;47.318;19.874;2023-09-08T11:07:10;10.02;;;3.92;;
62941;SDS011;49042;47.318;19.874;2023-09-08T11:10:12;12.80;;;3.75;;
62941;SDS011;49042;47.318;19.874;2023-09-08T11:13:14;6.53;;;3.53;;
62941;SDS011;49042;47.318;19.874;2023-09-08T11:16:16;6.32;;;3.62;;
62941;SDS011;49042;47.318;19.874;2023-09-08T11:19:23;15.95;;;4.85;;
62941;SDS011;49042;47.318;19.874;2023-09-08T11:22:25;16.62;;;3.65;;
62941;SDS011;49042;47.318;19.874;2023-09-08T11:25:28;6.62;;;3.47;;
62941;SDS011;49042;47.318;19.874;2023-09-08T11:28:29;5.55;;;3.78;;
62941;SDS011;49042;47.318;19.874;2023-09-08T11:31:32;12.77;;;3.65;;
62941;SDS011;49042;47.318;19.874;2023-09-08T11:34:37;6.47;;;3.40;;
62941;SDS011;49042;47.318;19.874;2023-09-08T11:37:42;7.68;;;3.58;;
62941;SDS011;49042;47.318;19.874;2023-09-08T11:40:43;6.68;;;3.37;;
62941;SDS011;49042;47.318;19.874;2023-09-08T11:43:45;5.70;;;3.30;;
62941;SDS011;49042;47.318;19.874;2023-09-08T11:46:48;5.20;;;3.50;;
62941;SDS011;49042;47.318;19.874;2023-09-08T11:49:52;4.53;;;3.40;;
62941;SDS011;49042;47.318;19.874;2023-09-08T11:52:54;7.40;;;3.50;;
62941;SDS011;49042;47.318;19.874;2023-09-08T11:55:56;4.50;;;3.28;;
62941;SDS011;49042;47.318;19.874;2023-09-08T11:58:58;6.20;;;3.47;;
62941;SDS011;49042;47.318;19.874;2023-09-08T12:02:00;10.15;;;3.22;;
62941;SDS011;49042;47.318;19.874;2023-09-08T12:05:02;6.15;;;3.28;;
62941;SDS011;49042;47.318;19.874;2023-09-08T12:08:05;5.75;;;3.55;;
62941;SDS011;49042;47.318;19.874;2023-09-08T12:11:07;4.60;;;3.30;;
62941;SDS011;49042;47.318;19.874;2023-09-08T12:14:10;16.90;;;3.67;;
62941;SDS011;49042;47.318;19.874;2023-09-08T12:17:13;9.30;;;3.33;;
62941;SDS011;49042;47.318;19.874;2023-09-08T12:23:21;6.85;;;3.37;;
62941;SDS011;49042;47.318;19.874;2023-09-08T12:26:26;9.25;;;3.42;;
62941;SDS011;49042;47.318;19.874;2023-09-08T12:29:28;7.40;;;3.42;;
62941;SDS011;49042;47.318;19.874;2023-09-08T12:32:30;11.18;;;3.33;;
62941;SDS011;49042;47.318;19.874;2023-09-08T12:35:33;15.13;;;3.40;;
62941;SDS011;49042;47.318;19.874;2023-09-08T12:38:36;4.72;;;3.40;;
62941;SDS011;49042;47.318;19.874;2023-09-08T12:41:38;11.20;;;3.65;;
62941;SDS011;49042;47.318;19.874;2023-09-08T12:44:40;5.07;;;3.17;;
62941;SDS011;49042;47.318;19.874;2023-09-08T12:47:42;5.68;;;3.35;;
62941;SDS011;49042;47.318;19.874;2023-09-08T12:50:44;5.75;;;3.65;;
62941;SDS011;49042;47.318;19.874;2023-09-08T12:53:46;3.95;;;2.90;;
62941;SDS011;49042;47.318;19.874;2023-09-08T12:56:48;5.62;;;3.15;;
62941;SDS011;49042;47.318;19.874;2023-09-08T12:59:50;3.42;;;2.87;;
62941;SDS011;49042;47.318;19.874;2023-09-08T13:02:53;8.70;;;3.12;;
62941;SDS011;49042;47.318;19.874;2023-09-08T13:05:55;7.65;;;3.10;;
62941;SDS011;49042;47.318;19.874;2023-09-08T13:08:56;4.00;;;2.85;;
62941;SDS011;49042;47.318;19.874;2023-09-08T13:12:00;8.82;;;3.28;;
62941;SDS011;49042;47.318;19.874;2023-09-08T13:15:02;6.28;;;3.42;;
62941;SDS011;49042;47.318;19.874;2023-09-08T13:18:04;6.05;;;3.47;;
62941;SDS011;49042;47.318;19.874;2023-09-08T13:21:06;11.43;;;3.25;;
62941;SDS011;49042;47.318;19.874;2023-09-08T13:24:08;12.35;;;3.62;;
62941;SDS011;49042;47.318;19.874;2023-09-08T13:27:10;8.40;;;3.25;;
62941;SDS011;49042;47.318;19.874;2023-09-08T13:30:13;5.85;;;3.50;;
62941;SDS011;49042;47.318;19.874;2023-09-08T13:33:17;9.93;;;3.55;;
62941;SDS011;49042;47.318;19.874;2023-09-08T13:36:19;9.57;;;3.75;;
62941;SDS011;49042;47.318;19.874;2023-09-08T13:39:21;9.45;;;3.53;;
62941;SDS011;49042;47.318;19.874;2023-09-08T13:42:23;6.75;;;3.40;;
62941;SDS011;49042;47.318;19.874;2023-09-08T13:45:25;4.45;;;3.50;;
62941;SDS011;49042;47.318;19.874;2023-09-08T13:48:28;5.20;;;3.70;;
62941;SDS011;49042;47.318;19.874;2023-09-08T13:51:31;6.82;;;3.58;;
62941;SDS011;49042;47.318;19.874;2023-09-08T13:54:35;15.70;;;3.80;;
62941;SDS011;49042;47.318;19.874;2023-09-08T13:57:40;11.57;;;3.50;;
62941;SDS011;49042;47.318;19.874;2023-09-08T14:00:43;8.93;;;3.50;;
62941;SDS011;49042;47.318;19.874;2023-09-08T14:03:47;9.90;;;3.78;;
62941;SDS011;49042;47.318;19.874;2023-09-08T14:06:55;5.80;;;3.15;;
62941;SDS011;49042;47.318;19.874;2023-09-08T14:10:03;6.20;;;3.50;;
62941;SDS011;49042;47.318;19.874;2023-09-08T14:13:12;4.43;;;2.92;;
62941;SDS011;49042;47.318;19.874;2023-09-08T14:16:14;4.85;;;3.50;;
62941;SDS011;49042;47.318;19.874;2023-09-08T14:19:19;5.12;;;3.30;;
62941;SDS011;49042;47.318;19.874;2023-09-08T14:22:20;6.07;;;3.75;;
62941;SDS011;49042;47.318;19.874;2023-09-08T14:25:23;7.50;;;3.50;;
62941;SDS011;49042;47.318;19.874;2023-09-08T14:28:25;7.93;;;3.65;;
62941;SDS011;49042;47.318;19.874;2023-09-08T14:31:28;7.60;;;3.30;;
62941;SDS011;49042;47.318;19.874;2023-09-08T14:34:30;13.35;;;3.75;;
62941;SDS011;49042;47.318;19.874;2023-09-08T14:37:33;10.20;;;3.35;;
62941;SDS011;49042;47.318;19.874;2023-09-08T14:40:35;7.25;;;3.22;;
62941;SDS011;49042;47.318;19.874;2023-09-08T14:43:37;6.85;;;3.20;;
62941;SDS011;49042;47.318;19.874;2023-09-08T14:46:39;14.27;;;3.40;;
62941;SDS011;49042;47.318;19.874;2023-09-08T14:49:42;7.18;;;3.35;;
62941;SDS011;49042;47.318;19.874;2023-09-08T14:52:44;8.60;;;3.60;;
62941;SDS011;49042;47.318;19.874;2023-09-08T14:55:46;8.07;;;3.28;;
62941;SDS011;49042;47.318;19.874;2023-09-08T14:58:49;8.32;;;3.87;;
62941;SDS011;49042;47.318;19.874;2023-09-08T15:01:51;10.80;;;3.40;;
62941;SDS011;49042;47.318;19.874;2023-09-08T15:04:55;7.80;;;3.45;;
62941;SDS011;49042;47.318;19.874;2023-09-08T15:07:57;8.43;;;3.08;;
62941;SDS011;49042;47.318;19.874;2023-09-08T15:11:00;15.20;;;4.05;;
62941;SDS011;49042;47.318;19.874;2023-09-08T15:14:02;5.57;;;3.42;;
62941;SDS011;49042;47.318;19.874;2023-09-08T15:17:04;4.12;;;3.17;;
62941;SDS011;49042;47.318;19.874;2023-09-08T15:20:07;7.72;;;3.47;;
62941;SDS011;49042;47.318;19.874;2023-09-08T15:23:10;6.03;;;3.83;;
62941;SDS011;49042;47.318;19.874;2023-09-08T15:26:12;8.52;;;3.37;;
62941;SDS011;49042;47.318;19.874;2023-09-08T15:29:15;11.93;;;3.40;;
62941;SDS011;49042;47.318;19.874;2023-09-08T15:32:17;6.47;;;3.60;;
62941;SDS011;49042;47.318;19.874;2023-09-08T15:35:19;8.63;;;3.55;;
62941;SDS011;49042;47.318;19.874;2023-09-08T15:38:21;8.00;;;3.67;;
62941;SDS011;49042;47.318;19.874;2023-09-08T15:41:24;10.07;;;3.30;;
62941;SDS011;49042;47.318;19.874;2023-09-08T15:44:25;9.90;;;3.83;;
62941;SDS011;49042;47.318;19.874;2023-09-08T15:47:28;6.80;;;3.40;;
62941;SDS011;49042;47.318;19.874;2023-09-08T15:50:30;14.55;;;3.92;;
62941;SDS011;49042;47.318;19.874;2023-09-08T15:53:32;9.32;;;3.45;;
62941;SDS011;49042;47.318;19.874;2023-09-08T15:56:35;16.35;;;3.58;;
62941;SDS011;49042;47.318;19.874;2023-09-08T15:59:37;13.18;;;3.62;;
62941;SDS011;49042;47.318;19.874;2023-09-08T16:02:40;10.30;;;3.40;;
62941;SDS011;49042;47.318;19.874;2023-09-08T16:05:42;8.93;;;4.32;;
62941;SDS011;49042;47.318;19.874;2023-09-08T16:08:44;13.57;;;4.00;;
62941;SDS011;49042;47.318;19.874;2023-09-08T16:11:46;6.62;;;3.87;;
62941;SDS011;49042;47.318;19.874;2023-09-08T16:14:48;7.20;;;3.90;;
62941;SDS011;49042;47.318;19.874;2023-09-08T16:17:50;12.65;;;4.22;;
62941;SDS011;49042;47.318;19.874;2023-09-08T16:20:52;13.15;;;3.67;;
62941;SDS011;49042;47.318;19.874;2023-09-08T16:23:54;11.75;;;3.92;;
62941;SDS011;49042;47.318;19.874;2023-09-08T16:26:57;6.82;;;3.35;;
62941;SDS011;49042;47.318;19.874;2023-09-08T16:30:02;16.20;;;4.00;;
62941;SDS011;49042;47.318;19.874;2023-09-08T16:33:05;14.40;;;4.87;;
62941;SDS011;49042;47.318;19.874;2023-09-08T16:36:07;11.02;;;5.00;;
62941;SDS011;49042;47.318;19.874;2023-09-08T16:39:10;18.20;;;5.40;;
62941;SDS011;49042;47.318;19.874;2023-09-08T16:42:12;15.80;;;5.37;;
62941;SDS011;49042;47.318;19.874;2023-09-08T16:45:15;12.25;;;6.28;;
62941;SDS011;49042;47.318;19.874;2023-09-08T16:48:17;18.58;;;5.90;;
62941;SDS011;49042;47.318;19.874;2023-09-08T16:51:19;16.42;;;5.03;;
62941;SDS011;49042;47.318;19.874;2023-09-08T16:54:22;21.80;;;5.78;;
62941;SDS011;49042;47.318;19.874;2023-09-08T16:57:24;17.98;;;5.90;;
62941;SDS011;49042;47.318;19.874;2023-09-08T17:00:26;20.58;;;6.55;;
62941;SDS011;49042;47.318;19.874;2023-09-08T17:03:28;20.80;;;5.10;;
62941;SDS011;49042;47.318;19.874;2023-09-08T17:06:30;16.45;;;5.85;;
62941;SDS011;49042;47.318;19.874;2023-09-08T17:09:32;11.23;;;4.55;;
62941;SDS011;49042;47.318;19.874;2023-09-08T17:12:35;18.10;;;5.00;;
62941;SDS011;49042;47.318;19.874;2023-09-08T17:15:37;32.92;;;5.12;;
62941;SDS011;49042;47.318;19.874;2023-09-08T17:18:40;19.58;;;4.78;;
62941;SDS011;49042;47.318;19.874;2023-09-08T17:21:42;9.75;;;4.37;;
62941;SDS011;49042;47.318;19.874;2023-09-08T17:24:44;16.42;;;4.22;;
62941;SDS011;49042;47.318;19.874;2023-09-08T17:27:47;13.75;;;4.32;;
62941;SDS011;49042;47.318;19.874;2023-09-08T17:30:49;14.60;;;4.62;;
62941;SDS011;49042;47.318;19.874;2023-09-08T17:33:51;15.52;;;4.70;;
62941;SDS011;49042;47.318;19.874;2023-09-08T17:36:54;16.15;;;4.40;;
62941;SDS011;49042;47.318;19.874;2023-09-08T17:39:57;13.43;;;4.20;;
62941;SDS011;49042;47.318;19.874;2023-09-08T17:43:01;9.38;;;4.15;;
62941;SDS011;49042;47.318;19.874;2023-09-08T17:46:03;9.95;;;4.20;;
62941;SDS011;49042;47.318;19.874;2023-09-08T17:49:06;10.80;;;4.10;;
62941;SDS011;49042;47.318;19.874;2023-09-08T17:52:08;10.13;;;4.20;;
62941;SDS011;49042;47.318;19.874;2023-09-08T17:55:10;14.93;;;6.87;;
62941;SDS011;49042;47.318;19.874;2023-09-08T17:58:13;12.35;;;5.53;;
62941;SDS011;49042;47.318;19.874;2023-09-08T18:01:16;18.75;;;5.05;;
62941;SDS011;49042;47.318;19.874;2023-09-08T18:04:19;14.50;;;5.00;;
62941;SDS011;49042;47.318;19.874;2023-09-08T18:07:22;10.35;;;4.37;;
62941;SDS011;49042;47.318;19.874;2023-09-08T18:10:24;12.98;;;4.00;;
62941;SDS011;49042;47.318;19.874;2023-09-08T18:13:27;9.40;;;4.12;;